EGPE

Inverness Airport

Inverness, United Kingdom
METAR EGPE 192120Z 24010KT 9999 RADZ FEW010 BKN025 08/08 Q1016
Observed Flight Rules
Feb-19 @ 21:20 UTC (15 minutes ago) Marginal Visual Flight Rules
Wind Visibility Clouds Conditions
240° at 10 knots 10,000+ meters
  • Few at 1,000' AGL
  • Broken at 2,500' AGL
  • Rain
  • Drizzle
Temperatures Readings
Current 8°C / 46°F
Dewpoint 8°C / 46°F
Humidity 100%
Altimeter 30" Hg
Pressure 1016 hPa
Elevation 9
METAR EGPE 192120Z 24010KT 9999 RADZ FEW010 BKN025 08/08 Q1016
Observed Flight Rules
Feb-19 @ 21:20 UTC
(15 minutes ago)
MVFR
Wind Visibility
240° at 10 knots 10,000+ meters
Clouds
  • Few at 1,000' AGL
  • Broken at 2,500' AGL
Conditions
  • Rain
  • Drizzle
Temperature Dewpoint
8°C / 46°F 8°C / 46°F
Humidity Altimeter Pressure
100% 30" Hg 1016 hPa